createdAt,value
2017-11-07T00:00:36.591Z,18.80
2017-11-07T00:03:04.144Z,19.43
2017-11-07T00:05:31.740Z,19.60
2017-11-07T00:07:59.294Z,19.37
2017-11-07T00:10:27.889Z,18.20
2017-11-07T00:12:55.444Z,18.57
2017-11-07T00:15:22.993Z,18.67
2017-11-07T00:17:50.569Z,17.90
2017-11-07T00:20:18.110Z,18.37
2017-11-07T00:22:45.693Z,18.97
2017-11-07T00:25:13.232Z,19.20
2017-11-07T00:27:40.838Z,18.03
2017-11-07T00:30:08.383Z,18.40
2017-11-07T00:32:36.222Z,17.03
2017-11-07T00:35:03.787Z,17.83
2017-11-07T00:37:31.762Z,18.20
2017-11-07T00:39:59.333Z,17.90
2017-11-07T00:42:26.918Z,19.17
2017-11-07T00:44:54.484Z,18.60
2017-11-07T00:47:22.031Z,18.40
2017-11-07T00:49:49.995Z,18.13
2017-11-07T00:52:17.555Z,17.93
2017-11-07T00:54:45.102Z,18.37
2017-11-07T00:57:12.677Z,17.13
2017-11-07T00:59:40.227Z,16.40
2017-11-07T01:02:07.819Z,17.40
2017-11-07T01:04:35.359Z,18.23
2017-11-07T01:07:02.941Z,17.77
2017-11-07T01:09:30.477Z,17.23
2017-11-07T01:11:58.024Z,17.37
2017-11-07T01:14:25.590Z,17.07
2017-11-07T01:16:53.161Z,16.77
2017-11-07T01:19:20.728Z,17.77
2017-11-07T01:21:48.340Z,16.83
2017-11-07T01:24:16.215Z,17.20
2017-11-07T01:26:43.764Z,15.27
2017-11-07T01:29:11.320Z,17.50
2017-11-07T01:31:38.906Z,16.00
2017-11-07T01:34:06.466Z,16.90
2017-11-07T01:36:34.073Z,16.87
2017-11-07T01:39:01.616Z,16.10
2017-11-07T01:41:29.578Z,16.63
2017-11-07T01:43:57.134Z,16.40
2017-11-07T01:46:24.667Z,15.37
2017-11-07T01:48:52.223Z,15.27
2017-11-07T01:51:19.767Z,14.67
2017-11-07T01:53:47.327Z,15.37
2017-11-07T01:56:14.886Z,14.53
2017-11-07T01:58:42.788Z,14.90
2017-11-07T02:01:10.318Z,14.93
2017-11-07T02:03:37.854Z,15.03
2017-11-07T02:06:05.444Z,14.23
2017-11-07T02:08:33.000Z,14.40
2017-11-07T02:11:00.824Z,14.30
2017-11-07T02:13:28.364Z,13.40
2017-11-07T02:15:55.940Z,13.37
2017-11-07T02:18:23.588Z,13.10
2017-11-07T02:20:51.150Z,12.27
2017-11-07T02:23:18.870Z,13.47
2017-11-07T02:25:46.392Z,11.83
2017-11-07T02:28:14.319Z,12.77
2017-11-07T02:30:41.870Z,10.90
2017-11-07T02:33:09.424Z,12.17
2017-11-07T02:35:37.010Z,11.03
2017-11-07T02:38:04.561Z,12.03
2017-11-07T02:40:32.120Z,11.47
2017-11-07T02:42:59.664Z,10.97
2017-11-07T02:45:27.544Z,10.20
2017-11-07T02:47:55.095Z,9.80
2017-11-07T02:50:22.677Z,10.57
2017-11-07T02:52:50.244Z,10.47
2017-11-07T02:55:17.927Z,9.60
2017-11-07T02:57:46.171Z,9.07
2017-11-07T03:00:13.722Z,9.97
2017-11-07T03:02:41.275Z,8.90
2017-11-07T03:05:08.829Z,9.20
2017-11-07T03:07:36.367Z,9.90
2017-11-07T03:10:04.270Z,9.70
2017-11-07T03:12:31.813Z,8.07
2017-11-07T03:14:59.364Z,9.10
2017-11-07T03:17:26.923Z,8.67
2017-11-07T03:19:54.552Z,9.03
2017-11-07T03:22:22.331Z,9.00
2017-11-07T03:24:49.858Z,9.20
2017-11-07T03:27:17.552Z,8.30
2017-11-07T03:29:45.113Z,9.30
2017-11-07T03:32:13.039Z,8.83
2017-11-07T03:34:40.580Z,8.90
2017-11-07T03:37:08.109Z,8.70
2017-11-07T03:39:35.677Z,7.90
2017-11-07T03:42:03.224Z,8.70
2017-11-07T03:44:31.031Z,7.93
2017-11-07T03:46:58.586Z,9.27
2017-11-07T03:49:26.134Z,8.70
2017-11-07T03:51:53.698Z,9.00
2017-11-07T03:54:21.242Z,8.67
2017-11-07T03:56:48.808Z,8.37
2017-11-07T03:59:16.362Z,8.77
2017-11-07T04:01:44.256Z,8.07
2017-11-07T04:04:11.807Z,8.13
2017-11-07T04:06:39.364Z,8.50
2017-11-07T04:09:07.148Z,9.37
2017-11-07T04:11:34.676Z,7.63
2017-11-07T04:14:02.240Z,7.87
2017-11-07T04:16:29.853Z,7.77
2017-11-07T04:18:57.734Z,8.80
2017-11-07T04:21:25.271Z,7.73
2017-11-07T04:23:52.818Z,8.17
2017-11-07T04:26:20.386Z,8.73
2017-11-07T04:28:47.948Z,11.30
2017-11-07T04:31:15.640Z,10.77
2017-11-07T04:33:43.163Z,8.37
2017-11-07T04:36:11.017Z,8.83
2017-11-07T04:38:38.555Z,8.03
2017-11-07T04:41:06.096Z,7.60
2017-11-07T04:43:33.656Z,7.30
2017-11-07T04:46:01.240Z,7.30
2017-11-07T04:48:28.851Z,6.60
2017-11-07T04:50:56.453Z,7.43
2017-11-07T04:53:24.539Z,7.40
2017-11-07T04:55:52.084Z,8.47
2017-11-07T04:58:19.619Z,7.30
2017-11-07T05:00:47.177Z,8.10
2017-11-07T05:03:14.721Z,7.60
2017-11-07T05:05:43.045Z,6.97
2017-11-07T05:08:10.591Z,8.07
2017-11-07T05:10:38.485Z,6.97
2017-11-07T05:13:06.048Z,7.30
2017-11-07T05:15:33.591Z,6.73
2017-11-07T05:18:01.179Z,6.80
2017-11-07T05:20:28.740Z,7.50
2017-11-07T05:22:56.602Z,7.90
2017-11-07T05:25:24.285Z,6.90
2017-11-07T05:27:51.834Z,7.13
2017-11-07T05:30:19.377Z,6.87
2017-11-07T05:32:46.980Z,6.83
2017-11-07T05:35:14.594Z,6.87
2017-11-07T05:37:42.138Z,7.00
2017-11-07T05:40:09.714Z,7.30
2017-11-07T05:42:37.262Z,7.13
2017-11-07T05:45:04.806Z,6.50
2017-11-07T05:47:32.379Z,6.57
2017-11-07T05:49:59.910Z,6.50
2017-11-07T05:52:27.467Z,6.60
2017-11-07T05:54:55.008Z,6.60
2017-11-07T05:57:22.844Z,6.00
2017-11-07T05:59:50.447Z,6.83
2017-11-07T06:02:18.099Z,6.67
2017-11-07T06:04:45.659Z,7.50
2017-11-07T06:07:13.260Z,7.97
2017-11-07T06:09:40.811Z,6.00
2017-11-07T06:12:08.333Z,5.80
2017-11-07T06:14:35.902Z,8.17
2017-11-07T06:17:03.435Z,6.10
2017-11-07T06:19:30.995Z,6.47
2017-11-07T06:21:58.551Z,6.60
2017-11-07T06:24:26.092Z,6.30
2017-11-07T06:26:53.664Z,6.03
2017-11-07T06:29:21.203Z,6.90
2017-11-07T06:31:48.755Z,6.70
2017-11-07T06:34:16.364Z,5.90
2017-11-07T06:36:44.045Z,6.97
2017-11-07T06:39:11.610Z,7.33
2017-11-07T06:41:39.269Z,6.90
2017-11-07T06:44:07.115Z,7.60
2017-11-07T06:46:34.655Z,7.60
2017-11-07T06:49:02.541Z,8.13
2017-11-07T06:51:30.477Z,11.00
2017-11-07T06:53:58.030Z,8.80
2017-11-07T06:56:25.617Z,11.27
2017-11-07T06:58:53.159Z,7.83
2017-11-07T07:01:21.144Z,7.77
2017-11-07T07:03:48.691Z,8.13
2017-11-07T07:06:16.249Z,7.30
2017-11-07T07:08:43.827Z,7.07
2017-11-07T07:11:11.437Z,7.13
2017-11-07T07:13:38.994Z,8.77
2017-11-07T07:16:06.533Z,8.30
2017-11-07T07:18:34.529Z,8.10
2017-11-07T07:21:02.083Z,8.30
2017-11-07T07:23:29.633Z,9.40
2017-11-07T07:25:57.179Z,9.50
2017-11-07T07:28:24.719Z,8.90
2017-11-07T07:30:52.269Z,9.50
2017-11-07T07:33:19.803Z,9.53
2017-11-07T07:35:47.385Z,9.77
2017-11-07T07:38:15.041Z,10.80
2017-11-07T07:40:42.618Z,10.97
2017-11-07T07:43:10.186Z,10.00
2017-11-07T07:45:37.731Z,10.10
2017-11-07T07:48:05.331Z,11.40
2017-11-07T07:50:32.880Z,11.87
2017-11-07T07:53:00.502Z,13.27
2017-11-07T07:55:28.059Z,15.70
2017-11-07T07:57:55.619Z,14.10
2017-11-07T08:00:23.180Z,14.40
2017-11-07T08:02:50.735Z,14.30
2017-11-07T08:05:18.329Z,14.03
2017-11-07T08:07:45.863Z,15.43
2017-11-07T08:10:13.400Z,15.60
2017-11-07T08:12:40.964Z,16.80
2017-11-07T08:15:08.485Z,17.67
2017-11-07T08:17:36.036Z,15.60
2017-11-07T08:20:03.571Z,18.10
2017-11-07T08:22:31.138Z,17.70
2017-11-07T08:24:58.691Z,20.33
2017-11-07T08:27:26.551Z,19.03
2017-11-07T08:29:54.129Z,17.30
2017-11-07T08:32:21.677Z,17.03
2017-11-07T08:34:49.247Z,17.53
2017-11-07T08:37:16.780Z,17.20
2017-11-07T08:39:44.346Z,16.90
2017-11-07T08:42:11.933Z,19.50
2017-11-07T08:44:39.520Z,20.90
2017-11-07T08:47:07.068Z,20.00
2017-11-07T08:49:34.638Z,21.30
2017-11-07T08:52:02.212Z,18.20
2017-11-07T08:54:29.772Z,20.33
2017-11-07T08:56:57.360Z,19.83
2017-11-07T08:59:24.906Z,19.17
2017-11-07T09:01:52.475Z,19.67
2017-11-07T09:04:20.012Z,21.77
2017-11-07T09:06:47.916Z,20.67
2017-11-07T09:09:15.489Z,20.20
2017-11-07T09:11:43.182Z,19.17
2017-11-07T09:14:10.748Z,20.37
2017-11-07T09:16:38.314Z,20.67
2017-11-07T09:19:06.123Z,18.40
2017-11-07T09:21:33.702Z,17.17
2017-11-07T09:24:01.283Z,21.20
2017-11-07T09:26:29.026Z,20.80
2017-11-07T09:28:56.594Z,18.43
2017-11-07T09:31:24.341Z,21.53
2017-11-07T09:33:51.880Z,21.40
2017-11-07T09:36:19.459Z,14.10
2017-11-07T09:38:47.034Z,19.30
2017-11-07T09:41:14.582Z,19.70
2017-11-07T09:43:42.462Z,21.57
2017-11-07T09:46:10.000Z,22.73
2017-11-07T09:48:37.565Z,20.90
2017-11-07T09:51:05.125Z,22.67
2017-11-07T09:53:32.675Z,18.00
2017-11-07T09:56:00.255Z,21.50
2017-11-07T09:58:27.823Z,21.20
2017-11-07T10:00:55.678Z,21.80
2017-11-07T10:03:23.642Z,19.00
2017-11-07T10:05:51.195Z,22.60
2017-11-07T10:08:18.777Z,20.67
2017-11-07T10:10:46.609Z,22.47
2017-11-07T10:13:14.229Z,17.00
2017-11-07T10:15:41.790Z,15.13
2017-11-07T10:18:09.498Z,20.87
2017-11-07T10:20:37.043Z,22.63
2017-11-07T10:23:05.249Z,20.47
2017-11-07T10:25:32.802Z,20.40
2017-11-07T10:28:00.357Z,16.77
2017-11-07T10:30:27.919Z,19.43
2017-11-07T10:32:55.469Z,21.43
2017-11-07T10:35:23.204Z,20.70
2017-11-07T10:37:50.735Z,21.30
2017-11-07T10:40:18.328Z,19.57
2017-11-07T10:42:45.889Z,21.70
2017-11-07T10:45:13.449Z,21.50
2017-11-07T10:47:41.055Z,24.40
2017-11-07T10:50:08.631Z,17.10
2017-11-07T10:52:36.190Z,19.30
2017-11-07T10:55:03.733Z,21.20
2017-11-07T10:57:31.315Z,22.00
2017-11-07T10:59:59.248Z,18.30
2017-11-07T11:02:26.789Z,22.10
2017-11-07T11:04:54.380Z,23.47
2017-11-07T11:07:21.921Z,16.47
2017-11-07T11:09:50.873Z,21.40
2017-11-07T11:12:18.412Z,21.40
2017-11-07T11:14:46.358Z,18.70
2017-11-07T11:17:13.922Z,22.20
2017-11-07T11:19:41.471Z,21.60
2017-11-07T11:22:09.041Z,21.27
2017-11-07T11:24:36.585Z,20.27
2017-11-07T11:27:04.159Z,21.17
2017-11-07T11:29:31.693Z,23.20
2017-11-07T11:31:59.272Z,23.30
2017-11-07T11:34:26.832Z,21.30
2017-11-07T11:36:54.379Z,20.07
2017-11-07T11:39:21.941Z,22.60
2017-11-07T11:41:49.488Z,19.30
2017-11-07T11:44:17.071Z,22.97
2017-11-07T11:46:44.605Z,21.30
2017-11-07T11:49:14.891Z,21.57
2017-11-07T11:51:42.480Z,19.20
2017-11-07T11:54:10.027Z,21.77
2017-11-07T11:56:37.589Z,23.00
2017-11-07T11:59:05.132Z,22.97
2017-11-07T12:01:32.713Z,23.37
2017-11-07T12:04:00.261Z,21.00
2017-11-07T12:06:27.825Z,22.77
2017-11-07T12:08:55.357Z,22.20
2017-11-07T12:11:23.075Z,20.90
2017-11-07T12:13:50.639Z,21.83
2017-11-07T12:16:18.201Z,24.53
2017-11-07T12:18:45.802Z,19.93
2017-11-07T12:21:13.345Z,23.97
2017-11-07T12:23:40.919Z,19.30
2017-11-07T12:26:08.461Z,24.43
2017-11-07T12:28:36.056Z,21.47
2017-11-07T12:31:03.604Z,22.63
2017-11-07T12:33:31.159Z,23.30
2017-11-07T12:35:58.919Z,22.90
2017-11-07T12:38:26.463Z,23.13
2017-11-07T12:40:54.043Z,23.07
2017-11-07T12:43:21.597Z,21.80
2017-11-07T12:45:49.183Z,22.87
2017-11-07T12:48:16.835Z,22.53
2017-11-07T12:50:56.340Z,22.10
2017-11-07T12:53:23.903Z,19.67
2017-11-07T12:55:51.469Z,24.40
2017-11-07T12:58:19.045Z,22.37
2017-11-07T13:00:46.588Z,24.50
2017-11-07T13:03:14.161Z,22.60
2017-11-07T13:05:41.704Z,23.50
2017-11-07T13:08:09.270Z,20.17
2017-11-07T13:10:36.834Z,23.37
2017-11-07T13:13:04.382Z,22.30
2017-11-07T13:15:31.950Z,23.23
2017-11-07T13:17:59.497Z,23.20
2017-11-07T13:20:27.163Z,21.43
2017-11-07T13:22:54.733Z,23.90
2017-11-07T13:25:22.307Z,25.13
2017-11-07T13:27:49.863Z,25.37
2017-11-07T13:30:17.428Z,21.93
2017-11-07T13:32:45.001Z,21.67
2017-11-07T13:35:12.551Z,21.57
2017-11-07T13:37:40.111Z,24.43
2017-11-07T13:40:07.664Z,24.63
2017-11-07T13:42:35.229Z,23.43
2017-11-07T13:45:02.791Z,22.10
2017-11-07T13:47:30.385Z,25.27
2017-11-07T13:49:57.945Z,24.23
2017-11-07T13:52:25.492Z,23.57
2017-11-07T13:54:53.080Z,22.37
2017-11-07T13:57:20.623Z,23.70
2017-11-07T13:59:48.199Z,23.93
2017-11-07T14:02:15.752Z,23.93
2017-11-07T14:04:43.345Z,22.20
2017-11-07T14:07:11.009Z,20.10
2017-11-07T14:09:38.597Z,23.17
2017-11-07T14:12:06.218Z,23.87
2017-11-07T14:14:33.791Z,24.40
2017-11-07T14:17:01.384Z,24.60
2017-11-07T14:19:28.910Z,24.20
2017-11-07T14:21:56.793Z,22.73
2017-11-07T14:24:24.332Z,22.17
2017-11-07T14:26:51.883Z,23.50
2017-11-07T14:29:19.432Z,24.37
2017-11-07T14:31:46.970Z,23.50
2017-11-07T14:34:14.547Z,21.90
2017-11-07T14:36:42.110Z,23.10
2017-11-07T14:39:09.705Z,24.97
2017-11-07T14:41:37.267Z,24.23
2017-11-07T14:44:04.822Z,22.57
2017-11-07T14:46:32.414Z,24.10
2017-11-07T14:48:59.973Z,23.70
2017-11-07T14:51:27.582Z,23.73
2017-11-07T14:53:55.128Z,22.47
2017-11-07T14:56:22.836Z,22.93
2017-11-07T14:58:50.367Z,23.17
2017-11-07T15:01:17.909Z,24.03
2017-11-07T15:03:45.494Z,20.63
2017-11-07T15:06:13.040Z,23.07
2017-11-07T15:08:40.618Z,23.23
2017-11-07T15:11:08.180Z,36.07
2017-11-07T15:13:35.732Z,30.20
2017-11-07T15:16:03.464Z,26.23
2017-11-07T15:18:31.006Z,29.80
2017-11-07T15:20:58.584Z,23.93
2017-11-07T15:23:26.133Z,23.40
2017-11-07T15:25:53.725Z,23.23
2017-11-07T15:28:21.299Z,25.13
2017-11-07T15:30:48.841Z,25.73
2017-11-07T15:33:16.434Z,23.03
2017-11-07T15:35:43.985Z,26.17
2017-11-07T15:38:11.566Z,25.27
2017-11-07T15:40:39.130Z,25.70
2017-11-07T15:43:06.707Z,24.97
2017-11-07T15:45:34.441Z,23.93
2017-11-07T15:48:01.991Z,25.60
2017-11-07T15:50:29.560Z,21.37
2017-11-07T15:52:57.159Z,24.10
2017-11-07T15:55:24.903Z,25.70
2017-11-07T15:57:52.496Z,27.07
2017-11-07T16:00:20.676Z,23.57
2017-11-07T16:02:48.259Z,27.10
2017-11-07T16:05:15.815Z,25.73
2017-11-07T16:07:43.407Z,25.00
2017-11-07T16:10:11.066Z,24.60
2017-11-07T16:12:38.621Z,25.20
2017-11-07T16:15:06.299Z,24.17
2017-11-07T16:17:33.872Z,25.87
2017-11-07T16:20:01.453Z,23.70
2017-11-07T16:22:29.159Z,24.63
2017-11-07T16:24:56.913Z,23.23
2017-11-07T16:27:24.465Z,23.27
2017-11-07T16:29:52.033Z,23.97
2017-11-07T16:32:19.806Z,23.23
2017-11-07T16:34:47.364Z,22.30
2017-11-07T16:37:14.979Z,24.50
2017-11-07T16:39:42.709Z,25.03
2017-11-07T16:42:12.798Z,25.33
2017-11-07T16:44:40.419Z,25.43
2017-11-07T16:47:07.993Z,25.93
2017-11-07T16:49:36.247Z,24.20
2017-11-07T16:52:03.827Z,25.60
2017-11-07T16:54:31.420Z,24.13
2017-11-07T16:56:59.112Z,24.80
2017-11-07T16:59:27.398Z,24.70
2017-11-07T17:01:54.956Z,29.47
2017-11-07T17:04:22.551Z,31.47
2017-11-07T17:06:50.112Z,29.80
2017-11-07T17:09:17.698Z,29.50
2017-11-07T17:11:45.283Z,28.10
2017-11-07T17:14:12.888Z,27.20
2017-11-07T17:16:40.437Z,25.60
2017-11-07T17:19:08.377Z,27.03
2017-11-07T17:21:35.959Z,26.90
2017-11-07T17:24:03.544Z,28.00
2017-11-07T17:26:31.146Z,28.17
2017-11-07T17:28:58.726Z,25.80
2017-11-07T17:31:26.343Z,26.00
2017-11-07T17:33:53.951Z,25.90
2017-11-07T17:36:21.517Z,27.30
2017-11-07T17:38:49.113Z,25.17
2017-11-07T17:41:16.865Z,26.50
2017-11-07T17:43:44.443Z,26.07
2017-11-07T17:46:12.026Z,25.80
2017-11-07T17:48:39.636Z,26.00
2017-11-07T17:51:07.202Z,26.10
2017-11-07T17:53:34.791Z,24.23
2017-11-07T17:56:02.392Z,30.87
2017-11-07T17:58:30.661Z,24.83
2017-11-07T18:01:02.032Z,24.00
2017-11-07T18:03:29.607Z,24.70
2017-11-07T18:05:57.614Z,27.33
2017-11-07T18:08:25.389Z,26.47
2017-11-07T18:10:52.991Z,25.33
2017-11-07T18:13:20.927Z,29.07
2017-11-07T18:15:48.510Z,25.63
2017-11-07T18:18:16.214Z,27.43
2017-11-07T18:20:43.828Z,27.50
2017-11-07T18:23:11.427Z,25.87
2017-11-07T18:25:39.021Z,28.17
2017-11-07T18:28:06.788Z,28.70
2017-11-07T18:30:34.408Z,26.87
2017-11-07T18:33:02.146Z,28.70
2017-11-07T18:35:29.740Z,28.30
2017-11-07T18:37:57.678Z,25.60
2017-11-07T18:40:25.276Z,27.93
2017-11-07T18:42:52.999Z,30.50
2017-11-07T18:45:20.617Z,31.77
2017-11-07T18:47:48.292Z,31.17
2017-11-07T18:50:15.913Z,29.90
2017-11-07T18:52:43.533Z,33.07
2017-11-07T18:55:11.213Z,28.47
2017-11-07T18:57:38.892Z,28.90
2017-11-07T19:00:06.832Z,33.50
2017-11-07T19:02:34.596Z,28.43
2017-11-07T19:05:02.940Z,30.10
2017-11-07T19:07:30.680Z,29.27
2017-11-07T19:09:59.012Z,30.63
2017-11-07T19:12:26.796Z,30.90
2017-11-07T19:14:54.661Z,28.10
2017-11-07T19:17:22.642Z,30.70
2017-11-07T19:19:50.572Z,30.70
2017-11-07T19:22:18.548Z,31.60
2017-11-07T19:24:46.340Z,29.20
2017-11-07T19:27:14.069Z,28.37
2017-11-07T19:29:41.858Z,30.50
2017-11-07T19:32:09.562Z,29.00
2017-11-07T19:34:38.013Z,30.60
2017-11-07T19:37:05.754Z,30.30
2017-11-07T19:39:33.646Z,29.27
2017-11-07T19:42:01.389Z,28.60
2017-11-07T19:44:29.181Z,29.07
2017-11-07T19:46:57.017Z,31.20
2017-11-07T19:49:25.668Z,31.97
2017-11-07T19:51:53.906Z,31.10
2017-11-07T19:54:21.980Z,29.40
2017-11-07T19:56:50.150Z,29.27
2017-11-07T19:59:18.014Z,30.20
2017-11-07T20:01:45.985Z,31.67
2017-11-07T20:04:13.863Z,31.20
2017-11-07T20:19:46.912Z,26.27
2017-11-07T20:22:15.645Z,28.20
2017-11-07T20:24:43.468Z,31.07
2017-11-07T20:40:16.491Z,30.57
2017-11-07T20:42:44.728Z,29.33
2017-11-07T20:45:12.530Z,27.80
2017-11-07T20:47:40.339Z,29.10
2017-11-07T20:50:08.257Z,29.63
2017-11-07T20:52:36.415Z,26.97
2017-11-07T20:55:04.282Z,28.63
2017-11-07T20:57:31.965Z,29.60
2017-11-07T20:59:59.768Z,29.47
2017-11-07T21:02:27.539Z,28.33
2017-11-07T21:04:55.635Z,27.70
2017-11-07T21:07:23.377Z,29.60
2017-11-07T21:09:51.126Z,27.60
2017-11-07T21:12:20.442Z,30.63
2017-11-07T21:14:48.140Z,30.50
2017-11-07T21:17:15.864Z,28.73
2017-11-07T21:19:43.529Z,28.10
2017-11-07T21:22:11.330Z,30.10
2017-11-07T21:24:39.017Z,28.73
2017-11-07T21:27:06.660Z,30.60
2017-11-07T21:29:34.334Z,28.80
2017-11-07T21:32:01.903Z,27.30
2017-11-07T21:34:32.694Z,27.53
2017-11-07T21:37:00.320Z,30.70
2017-11-07T21:39:27.973Z,28.03
2017-11-07T21:41:55.522Z,28.27
2017-11-07T21:44:23.183Z,25.80
2017-11-07T21:46:50.825Z,27.83
2017-11-07T21:49:18.409Z,29.70
2017-11-07T21:51:46.319Z,27.67
2017-11-07T21:54:15.275Z,28.90
2017-11-07T21:56:42.836Z,27.83
2017-11-07T21:59:10.521Z,27.77
2017-11-07T22:01:38.077Z,30.13
2017-11-07T22:04:05.983Z,27.50
2017-11-07T22:06:33.549Z,28.07
2017-11-07T22:09:01.206Z,26.10
2017-11-07T22:11:29.866Z,27.80
2017-11-07T22:13:57.445Z,28.00
2017-11-07T22:16:25.025Z,28.67
2017-11-07T22:18:53.600Z,27.90
2017-11-07T22:21:21.322Z,27.80
2017-11-07T22:23:48.895Z,28.30
2017-11-07T22:26:16.765Z,28.30
2017-11-07T22:28:44.326Z,27.30
2017-11-07T22:31:11.902Z,27.67
2017-11-07T22:33:39.508Z,29.43
2017-11-07T22:36:07.216Z,29.97
2017-11-07T22:38:34.794Z,29.83
2017-11-07T22:41:02.357Z,30.53
2017-11-07T22:43:30.128Z,29.47
2017-11-07T22:45:57.688Z,28.37
2017-11-07T22:48:25.243Z,28.20
2017-11-07T22:50:52.838Z,28.20
2017-11-07T22:53:20.426Z,28.60
2017-11-07T22:55:47.991Z,28.43
2017-11-07T22:58:15.530Z,29.40
2017-11-07T23:00:43.113Z,28.63
2017-11-07T23:03:10.664Z,28.20
2017-11-07T23:05:38.217Z,27.90
2017-11-07T23:08:05.780Z,27.90
2017-11-07T23:10:33.343Z,30.50
2017-11-07T23:13:00.910Z,27.97
2017-11-07T23:15:28.506Z,28.00
2017-11-07T23:17:56.113Z,28.07
2017-11-07T23:20:23.668Z,28.93
2017-11-07T23:22:51.349Z,31.67
2017-11-07T23:25:18.914Z,30.60
2017-11-07T23:27:46.467Z,30.70
2017-11-07T23:30:14.298Z,31.47
2017-11-07T23:32:41.831Z,30.43
2017-11-07T23:35:09.377Z,31.80
2017-11-07T23:37:36.953Z,30.40
2017-11-07T23:40:04.571Z,31.00
2017-11-07T23:42:33.005Z,30.43
2017-11-07T23:45:00.641Z,34.03
2017-11-07T23:47:28.215Z,33.27
2017-11-07T23:49:55.745Z,31.80
2017-11-07T23:52:23.297Z,31.87
2017-11-07T23:54:50.859Z,34.23
2017-11-07T23:57:18.463Z,33.10
2017-11-07T23:59:46.029Z,35.77
